Time;durP1;ratioP1;P1;durP2;ratioP2;P2;SDS_P1;SDS_P2;PMS_P1;PMS_P2;Temp;Humidity;BMP_temperature;BMP_pressure;BME280_temperature;BME280_humidity;BME280_pressure;Samples;Min_cycle;Max_cycle;Signal;HPM_P1;HPM_P2
2023/11/24 12:02:53;;;;;;;0.30;0.30;;;;;;;;;;7398272;19;20120;-91
2023/11/24 12:05:21;;;;;;;0.20;0.20;;;;;;;;;;7391913;19;20162;-90
2023/11/24 12:07:49;;;;;;;0.20;0.20;;;;;;;;;;7395346;19;20192;-90
2023/11/24 12:10:16;;;;;;;0.20;0.20;;;;;;;;;;7392184;19;20153;-91
2023/11/24 12:12:45;;;;;;;0.30;0.30;;;;;;;;;;7396099;19;20720;-92
2023/11/24 12:15:18;;;;;;;0.30;0.30;;;;;;;;;;7396427;19;20224;-91
2023/11/24 12:17:45;;;;;;;0.30;0.30;;;;;;;;;;7389880;19;20145;-88
2023/11/24 12:20:14;;;;;;;0.30;0.30;;;;;;;;;;7390879;19;20148;-91
2023/11/24 12:22:43;;;;;;;0.30;0.30;;;;;;;;;;7391617;19;20196;-92
2023/11/24 12:25:13;;;;;;;0.20;0.20;;;;;;;;;;7395186;19;20168;-92
2023/11/24 12:27:43;;;;;;;0.30;0.30;;;;;;;;;;7394000;19;20137;-91
2023/11/24 12:30:12;;;;;;;0.20;0.20;;;;;;;;;;7391891;19;20498;-93
2023/11/24 12:32:40;;;;;;;0.30;0.30;;;;;;;;;;7391512;19;20212;-91
2023/11/24 12:35:08;;;;;;;0.30;0.30;;;;;;;;;;7393719;19;20616;-91
2023/11/24 12:37:39;;;;;;;0.30;0.30;;;;;;;;;;7388797;19;20129;-90
2023/11/24 12:40:21;;;;;;;0.30;0.30;;;;;;;;;;7391345;19;20157;-90
2023/11/24 12:42:48;;;;;;;0.20;0.20;;;;;;;;;;7390692;19;20133;-90
2023/11/24 12:45:16;;;;;;;0.30;0.30;;;;;;;;;;7389785;19;20132;-91
2023/11/24 12:47:46;;;;;;;0.30;0.30;;;;;;;;;;7392306;19;20176;-92
2023/11/24 12:50:14;;;;;;;0.30;0.30;;;;;;;;;;7390524;19;20232;-90
2023/11/24 12:52:45;;;;;;;0.30;0.30;;;;;;;;;;7389249;19;20129;-91
2023/11/24 12:55:13;;;;;;;0.30;0.30;;;;;;;;;;7389411;19;20133;-91
2023/11/24 12:57:44;;;;;;;0.30;0.30;;;;;;;;;;7387553;19;20245;-92
2023/11/24 13:00:16;;;;;;;0.20;0.20;;;;;;;;;;7389663;19;20175;-92
2023/11/24 13:02:48;;;;;;;0.30;0.30;;;;;;;;;;7390198;19;20143;-90
2023/11/24 13:05:15;;;;;;;0.37;0.37;;;;;;;;;;7390405;19;20144;-90
2023/11/24 13:07:47;;;;;;;0.30;0.30;;;;;;;;;;7387643;19;20161;-90
2023/11/24 13:10:15;;;;;;;0.20;0.20;;;;;;;;;;7387649;19;20164;-93
2023/11/24 13:12:43;;;;;;;0.30;0.30;;;;;;;;;;7390243;19;20449;-90
2023/11/24 13:15:10;;;;;;;0.20;0.20;;;;;;;;;;7390774;19;20137;-90
2023/11/24 13:17:51;;;;;;;0.20;0.20;;;;;;;;;;7387949;19;20156;-91
2023/11/24 13:20:18;;;;;;;0.30;0.30;;;;;;;;;;7389013;19;20160;-91
2023/11/24 13:22:45;;;;;;;0.40;0.40;;;;;;;;;;7397711;19;20212;-92
2023/11/24 13:25:13;;;;;;;0.30;0.30;;;;;;;;;;7399301;19;20157;-92
2023/11/24 13:27:41;;;;;;;0.30;0.30;;;;;;;;;;7397117;19;20156;-92
2023/11/24 13:30:15;;;;;;;0.30;0.30;;;;;;;;;;7395201;19;20161;-92
2023/11/24 13:32:42;;;;;;;0.30;0.30;;;;;;;;;;7393742;19;20564;-90
2023/11/24 13:35:11;;;;;;;0.30;0.30;;;;;;;;;;7395364;19;20580;-92
2023/11/24 13:37:38;;;;;;;1.60;1.50;;;;;;;;;;7393097;19;20141;-91
2023/11/24 13:51:19;;;;;;;0.20;0.20;;;;;;;;;;7401138;19;20592;-91
2023/11/24 13:54:15;;;;;;;0.30;0.30;;;;;;;;;;7399759;19;20159;-91
2023/11/24 13:56:44;;;;;;;0.30;0.30;;;;;;;;;;7398532;19;20137;-90
